sensor_id;sensor_type;location;lat;lon;timestamp;P1;durP1;ratioP1;P2;durP2;ratioP2
11191;SDS011;5652;48.406;10.820;2023-07-31T00:00:14;5.03;;;3.97;;
11191;SDS011;5652;48.406;10.820;2023-07-31T00:02:41;5.90;;;3.75;;
11191;SDS011;5652;48.406;10.820;2023-07-31T00:05:10;6.13;;;3.88;;
11191;SDS011;5652;48.406;10.820;2023-07-31T00:07:37;6.80;;;4.05;;
11191;SDS011;5652;48.406;10.820;2023-07-31T00:10:04;5.55;;;3.90;;
11191;SDS011;5652;48.406;10.820;2023-07-31T00:12:32;7.63;;;4.10;;
11191;SDS011;5652;48.406;10.820;2023-07-31T00:14:59;7.72;;;4.20;;
11191;SDS011;5652;48.406;10.820;2023-07-31T00:17:26;5.78;;;4.22;;
11191;SDS011;5652;48.406;10.820;2023-07-31T00:19:53;7.43;;;4.13;;
11191;SDS011;5652;48.406;10.820;2023-07-31T00:22:21;6.28;;;4.30;;
11191;SDS011;5652;48.406;10.820;2023-07-31T00:24:49;7.68;;;4.38;;
11191;SDS011;5652;48.406;10.820;2023-07-31T00:27:16;8.55;;;4.43;;
11191;SDS011;5652;48.406;10.820;2023-07-31T00:29:43;6.30;;;4.38;;
11191;SDS011;5652;48.406;10.820;2023-07-31T00:32:10;7.32;;;4.40;;
11191;SDS011;5652;48.406;10.820;2023-07-31T00:34:37;7.35;;;4.70;;
11191;SDS011;5652;48.406;10.820;2023-07-31T00:37:04;12.30;;;5.00;;
11191;SDS011;5652;48.406;10.820;2023-07-31T00:39:33;9.23;;;4.90;;
11191;SDS011;5652;48.406;10.820;2023-07-31T00:42:00;6.78;;;4.55;;
11191;SDS011;5652;48.406;10.820;2023-07-31T00:44:27;5.93;;;4.38;;
11191;SDS011;5652;48.406;10.820;2023-07-31T00:46:54;7.47;;;4.63;;
11191;SDS011;5652;48.406;10.820;2023-07-31T00:49:23;6.78;;;4.30;;
11191;SDS011;5652;48.406;10.820;2023-07-31T00:51:51;5.88;;;4.00;;
11191;SDS011;5652;48.406;10.820;2023-07-31T00:54:18;8.03;;;4.23;;
11191;SDS011;5652;48.406;10.820;2023-07-31T00:56:46;5.75;;;4.13;;
11191;SDS011;5652;48.406;10.820;2023-07-31T00:59:14;6.10;;;4.47;;
11191;SDS011;5652;48.406;10.820;2023-07-31T01:01:43;6.82;;;4.30;;
11191;SDS011;5652;48.406;10.820;2023-07-31T01:04:10;5.47;;;4.30;;
11191;SDS011;5652;48.406;10.820;2023-07-31T01:06:40;5.85;;;4.15;;
11191;SDS011;5652;48.406;10.820;2023-07-31T01:09:12;6.32;;;4.60;;
11191;SDS011;5652;48.406;10.820;2023-07-31T01:11:43;8.98;;;4.70;;
11191;SDS011;5652;48.406;10.820;2023-07-31T01:14:14;7.03;;;4.45;;
11191;SDS011;5652;48.406;10.820;2023-07-31T01:16:41;7.32;;;4.72;;
11191;SDS011;5652;48.406;10.820;2023-07-31T01:19:09;7.38;;;4.45;;
11191;SDS011;5652;48.406;10.820;2023-07-31T01:21:41;7.00;;;4.67;;
11191;SDS011;5652;48.406;10.820;2023-07-31T01:24:21;6.40;;;4.40;;
11191;SDS011;5652;48.406;10.820;2023-07-31T01:26:53;7.15;;;4.78;;
11191;SDS011;5652;48.406;10.820;2023-07-31T01:29:23;6.75;;;4.68;;
11191;SDS011;5652;48.406;10.820;2023-07-31T01:31:51;8.13;;;5.10;;
11191;SDS011;5652;48.406;10.820;2023-07-31T01:34:19;7.72;;;5.00;;
11191;SDS011;5652;48.406;10.820;2023-07-31T01:36:48;7.57;;;4.80;;
11191;SDS011;5652;48.406;10.820;2023-07-31T01:39:15;7.25;;;5.20;;
11191;SDS011;5652;48.406;10.820;2023-07-31T01:41:42;6.75;;;5.10;;
11191;SDS011;5652;48.406;10.820;2023-07-31T01:44:10;7.88;;;5.00;;
11191;SDS011;5652;48.406;10.820;2023-07-31T01:46:37;7.10;;;5.20;;
11191;SDS011;5652;48.406;10.820;2023-07-31T01:49:05;6.47;;;4.50;;
11191;SDS011;5652;48.406;10.820;2023-07-31T01:51:32;6.05;;;4.50;;
11191;SDS011;5652;48.406;10.820;2023-07-31T01:54:00;8.13;;;4.80;;
11191;SDS011;5652;48.406;10.820;2023-07-31T01:56:27;7.28;;;4.75;;
11191;SDS011;5652;48.406;10.820;2023-07-31T01:58:54;6.50;;;4.65;;
11191;SDS011;5652;48.406;10.820;2023-07-31T02:01:22;7.37;;;4.73;;
11191;SDS011;5652;48.406;10.820;2023-07-31T02:03:50;8.07;;;4.75;;
11191;SDS011;5652;48.406;10.820;2023-07-31T02:06:17;7.25;;;4.80;;
11191;SDS011;5652;48.406;10.820;2023-07-31T02:08:44;8.63;;;5.07;;
11191;SDS011;5652;48.406;10.820;2023-07-31T02:11:12;7.53;;;4.78;;
11191;SDS011;5652;48.406;10.820;2023-07-31T02:13:39;5.80;;;4.75;;
11191;SDS011;5652;48.406;10.820;2023-07-31T02:16:06;8.73;;;4.90;;
11191;SDS011;5652;48.406;10.820;2023-07-31T02:18:34;8.48;;;4.82;;
11191;SDS011;5652;48.406;10.820;2023-07-31T02:21:01;8.55;;;5.05;;
11191;SDS011;5652;48.406;10.820;2023-07-31T02:23:28;7.13;;;4.90;;
11191;SDS011;5652;48.406;10.820;2023-07-31T02:25:56;8.13;;;5.35;;
11191;SDS011;5652;48.406;10.820;2023-07-31T02:28:23;8.30;;;5.53;;
11191;SDS011;5652;48.406;10.820;2023-07-31T02:30:50;7.28;;;5.30;;
11191;SDS011;5652;48.406;10.820;2023-07-31T02:33:17;8.37;;;5.40;;
11191;SDS011;5652;48.406;10.820;2023-07-31T02:35:46;6.55;;;5.28;;
11191;SDS011;5652;48.406;10.820;2023-07-31T02:38:13;9.23;;;5.38;;
11191;SDS011;5652;48.406;10.820;2023-07-31T02:40:40;9.75;;;5.75;;
11191;SDS011;5652;48.406;10.820;2023-07-31T02:43:07;8.13;;;5.78;;
11191;SDS011;5652;48.406;10.820;2023-07-31T02:45:34;7.38;;;5.32;;
11191;SDS011;5652;48.406;10.820;2023-07-31T02:48:01;6.53;;;5.38;;
11191;SDS011;5652;48.406;10.820;2023-07-31T02:50:28;8.93;;;5.57;;
11191;SDS011;5652;48.406;10.820;2023-07-31T02:52:58;6.55;;;5.13;;
11191;SDS011;5652;48.406;10.820;2023-07-31T02:55:25;5.87;;;4.90;;
11191;SDS011;5652;48.406;10.820;2023-07-31T02:57:52;9.00;;;5.40;;
11191;SDS011;5652;48.406;10.820;2023-07-31T03:00:19;7.57;;;5.07;;
11191;SDS011;5652;48.406;10.820;2023-07-31T03:02:46;7.37;;;5.40;;
11191;SDS011;5652;48.406;10.820;2023-07-31T03:05:14;6.25;;;4.45;;
11191;SDS011;5652;48.406;10.820;2023-07-31T03:07:41;5.70;;;4.80;;
11191;SDS011;5652;48.406;10.820;2023-07-31T03:10:09;6.90;;;4.50;;
11191;SDS011;5652;48.406;10.820;2023-07-31T03:12:37;9.13;;;5.10;;
11191;SDS011;5652;48.406;10.820;2023-07-31T03:15:04;7.65;;;4.93;;
11191;SDS011;5652;48.406;10.820;2023-07-31T03:17:31;8.20;;;5.35;;
11191;SDS011;5652;48.406;10.820;2023-07-31T03:19:58;10.00;;;5.70;;
11191;SDS011;5652;48.406;10.820;2023-07-31T03:22:25;7.10;;;5.30;;
11191;SDS011;5652;48.406;10.820;2023-07-31T03:24:53;7.32;;;5.57;;
11191;SDS011;5652;48.406;10.820;2023-07-31T03:27:21;7.05;;;5.55;;
11191;SDS011;5652;48.406;10.820;2023-07-31T03:29:48;8.60;;;5.38;;
11191;SDS011;5652;48.406;10.820;2023-07-31T03:32:16;9.55;;;5.30;;
11191;SDS011;5652;48.406;10.820;2023-07-31T03:34:43;8.40;;;5.30;;
11191;SDS011;5652;48.406;10.820;2023-07-31T03:37:11;7.18;;;4.63;;
11191;SDS011;5652;48.406;10.820;2023-07-31T03:39:38;6.50;;;5.28;;
11191;SDS011;5652;48.406;10.820;2023-07-31T03:42:05;7.57;;;5.20;;
11191;SDS011;5652;48.406;10.820;2023-07-31T03:44:34;7.80;;;5.10;;
11191;SDS011;5652;48.406;10.820;2023-07-31T03:47:01;10.10;;;5.18;;
11191;SDS011;5652;48.406;10.820;2023-07-31T03:49:28;6.33;;;4.80;;
11191;SDS011;5652;48.406;10.820;2023-07-31T03:51:55;7.22;;;4.68;;
11191;SDS011;5652;48.406;10.820;2023-07-31T03:54:23;6.63;;;4.90;;
11191;SDS011;5652;48.406;10.820;2023-07-31T03:56:50;7.80;;;4.95;;
11191;SDS011;5652;48.406;10.820;2023-07-31T03:59:17;7.32;;;4.95;;
11191;SDS011;5652;48.406;10.820;2023-07-31T04:01:45;6.28;;;4.85;;
11191;SDS011;5652;48.406;10.820;2023-07-31T04:04:12;7.78;;;4.80;;
11191;SDS011;5652;48.406;10.820;2023-07-31T04:06:39;6.25;;;4.80;;
11191;SDS011;5652;48.406;10.820;2023-07-31T04:09:07;5.18;;;4.68;;
11191;SDS011;5652;48.406;10.820;2023-07-31T04:11:34;6.18;;;4.97;;
11191;SDS011;5652;48.406;10.820;2023-07-31T04:14:01;6.95;;;4.93;;
11191;SDS011;5652;48.406;10.820;2023-07-31T04:16:28;7.72;;;5.10;;
11191;SDS011;5652;48.406;10.820;2023-07-31T04:18:56;7.40;;;4.90;;
11191;SDS011;5652;48.406;10.820;2023-07-31T04:21:23;8.65;;;4.82;;
11191;SDS011;5652;48.406;10.820;2023-07-31T04:23:50;6.68;;;4.88;;
11191;SDS011;5652;48.406;10.820;2023-07-31T04:26:20;6.82;;;4.88;;
11191;SDS011;5652;48.406;10.820;2023-07-31T04:28:47;7.43;;;4.83;;
11191;SDS011;5652;48.406;10.820;2023-07-31T04:31:15;7.15;;;5.10;;
11191;SDS011;5652;48.406;10.820;2023-07-31T04:33:42;8.30;;;4.50;;
11191;SDS011;5652;48.406;10.820;2023-07-31T04:36:10;7.85;;;4.55;;
11191;SDS011;5652;48.406;10.820;2023-07-31T04:38:37;6.80;;;4.30;;
11191;SDS011;5652;48.406;10.820;2023-07-31T04:41:06;5.40;;;3.90;;
11191;SDS011;5652;48.406;10.820;2023-07-31T04:43:33;5.97;;;4.25;;
11191;SDS011;5652;48.406;10.820;2023-07-31T04:46:00;5.75;;;3.72;;
11191;SDS011;5652;48.406;10.820;2023-07-31T04:48:27;5.50;;;3.60;;
11191;SDS011;5652;48.406;10.820;2023-07-31T04:50:54;5.72;;;3.90;;
11191;SDS011;5652;48.406;10.820;2023-07-31T04:53:23;5.78;;;3.70;;
11191;SDS011;5652;48.406;10.820;2023-07-31T04:55:50;6.97;;;4.05;;
11191;SDS011;5652;48.406;10.820;2023-07-31T04:58:17;6.05;;;3.65;;
11191;SDS011;5652;48.406;10.820;2023-07-31T05:00:44;4.60;;;3.63;;
11191;SDS011;5652;48.406;10.820;2023-07-31T05:03:11;5.88;;;3.50;;
11191;SDS011;5652;48.406;10.820;2023-07-31T05:05:38;4.63;;;3.55;;
11191;SDS011;5652;48.406;10.820;2023-07-31T05:08:05;4.77;;;3.77;;
11191;SDS011;5652;48.406;10.820;2023-07-31T05:10:34;4.10;;;3.30;;
11191;SDS011;5652;48.406;10.820;2023-07-31T05:13:01;4.32;;;3.58;;
11191;SDS011;5652;48.406;10.820;2023-07-31T05:15:28;5.30;;;3.50;;
11191;SDS011;5652;48.406;10.820;2023-07-31T05:17:56;5.65;;;3.70;;
11191;SDS011;5652;48.406;10.820;2023-07-31T05:20:24;5.20;;;3.50;;
11191;SDS011;5652;48.406;10.820;2023-07-31T05:22:53;5.80;;;3.30;;
11191;SDS011;5652;48.406;10.820;2023-07-31T05:25:22;4.10;;;3.30;;
11191;SDS011;5652;48.406;10.820;2023-07-31T05:27:50;4.30;;;3.20;;
11191;SDS011;5652;48.406;10.820;2023-07-31T05:30:18;5.43;;;3.38;;
11191;SDS011;5652;48.406;10.820;2023-07-31T05:32:46;6.28;;;3.30;;
11191;SDS011;5652;48.406;10.820;2023-07-31T05:35:13;4.93;;;3.20;;
11191;SDS011;5652;48.406;10.820;2023-07-31T05:37:51;7.20;;;3.22;;
11191;SDS011;5652;48.406;10.820;2023-07-31T05:40:21;4.35;;;3.08;;
11191;SDS011;5652;48.406;10.820;2023-07-31T05:42:48;6.35;;;3.00;;
11191;SDS011;5652;48.406;10.820;2023-07-31T05:45:17;4.18;;;2.60;;
11191;SDS011;5652;48.406;10.820;2023-07-31T05:47:44;4.57;;;3.00;;
11191;SDS011;5652;48.406;10.820;2023-07-31T05:50:11;3.85;;;2.90;;
11191;SDS011;5652;48.406;10.820;2023-07-31T05:52:39;5.40;;;3.35;;
11191;SDS011;5652;48.406;10.820;2023-07-31T05:55:06;5.65;;;3.08;;
11191;SDS011;5652;48.406;10.820;2023-07-31T05:57:34;4.90;;;2.95;;
11191;SDS011;5652;48.406;10.820;2023-07-31T06:00:01;5.07;;;2.80;;
11191;SDS011;5652;48.406;10.820;2023-07-31T06:02:30;3.47;;;2.75;;
11191;SDS011;5652;48.406;10.820;2023-07-31T06:05:01;3.72;;;2.72;;
11191;SDS011;5652;48.406;10.820;2023-07-31T06:07:29;6.65;;;2.78;;
11191;SDS011;5652;48.406;10.820;2023-07-31T06:09:56;6.15;;;2.88;;
11191;SDS011;5652;48.406;10.820;2023-07-31T06:12:28;5.05;;;2.63;;
11191;SDS011;5652;48.406;10.820;2023-07-31T06:14:55;3.65;;;2.85;;
11191;SDS011;5652;48.406;10.820;2023-07-31T06:17:22;4.03;;;2.90;;
11191;SDS011;5652;48.406;10.820;2023-07-31T06:19:50;3.73;;;2.67;;
11191;SDS011;5652;48.406;10.820;2023-07-31T06:22:18;6.10;;;2.50;;
11191;SDS011;5652;48.406;10.820;2023-07-31T06:24:45;4.60;;;2.47;;
11191;SDS011;5652;48.406;10.820;2023-07-31T06:27:12;5.35;;;2.80;;
11191;SDS011;5652;48.406;10.820;2023-07-31T06:29:39;4.32;;;2.70;;
11191;SDS011;5652;48.406;10.820;2023-07-31T06:32:06;3.67;;;2.50;;
11191;SDS011;5652;48.406;10.820;2023-07-31T06:34:34;4.30;;;2.22;;
11191;SDS011;5652;48.406;10.820;2023-07-31T06:37:02;4.25;;;2.33;;
11191;SDS011;5652;48.406;10.820;2023-07-31T06:39:29;5.77;;;2.47;;
11191;SDS011;5652;48.406;10.820;2023-07-31T06:41:56;4.43;;;2.15;;
11191;SDS011;5652;48.406;10.820;2023-07-31T06:44:24;4.22;;;2.45;;
11191;SDS011;5652;48.406;10.820;2023-07-31T06:46:51;3.97;;;2.30;;
11191;SDS011;5652;48.406;10.820;2023-07-31T06:49:18;2.38;;;1.80;;
11191;SDS011;5652;48.406;10.820;2023-07-31T06:51:45;6.03;;;2.17;;
11191;SDS011;5652;48.406;10.820;2023-07-31T06:54:13;3.97;;;2.13;;
11191;SDS011;5652;48.406;10.820;2023-07-31T06:56:40;5.32;;;2.10;;
11191;SDS011;5652;48.406;10.820;2023-07-31T06:59:08;2.80;;;2.03;;
11191;SDS011;5652;48.406;10.820;2023-07-31T07:01:35;4.10;;;1.92;;
11191;SDS011;5652;48.406;10.820;2023-07-31T07:04:02;4.60;;;1.90;;
11191;SDS011;5652;48.406;10.820;2023-07-31T07:06:29;5.22;;;2.00;;
11191;SDS011;5652;48.406;10.820;2023-07-31T07:08:56;3.63;;;1.98;;
11191;SDS011;5652;48.406;10.820;2023-07-31T07:11:25;7.72;;;2.10;;
11191;SDS011;5652;48.406;10.820;2023-07-31T07:13:52;5.10;;;2.45;;
11191;SDS011;5652;48.406;10.820;2023-07-31T07:16:19;5.17;;;1.90;;
11191;SDS011;5652;48.406;10.820;2023-07-31T07:18:46;4.38;;;2.28;;
11191;SDS011;5652;48.406;10.820;2023-07-31T07:21:13;3.47;;;2.03;;
11191;SDS011;5652;48.406;10.820;2023-07-31T07:23:40;5.05;;;2.15;;
11191;SDS011;5652;48.406;10.820;2023-07-31T07:26:08;4.53;;;2.20;;
11191;SDS011;5652;48.406;10.820;2023-07-31T07:28:36;4.33;;;2.07;;
11191;SDS011;5652;48.406;10.820;2023-07-31T07:31:03;3.97;;;2.10;;
11191;SDS011;5652;48.406;10.820;2023-07-31T07:33:30;4.03;;;1.92;;
11191;SDS011;5652;48.406;10.820;2023-07-31T07:35:59;3.17;;;2.15;;
11191;SDS011;5652;48.406;10.820;2023-07-31T07:38:26;3.80;;;2.08;;
11191;SDS011;5652;48.406;10.820;2023-07-31T07:40:54;5.07;;;2.10;;
11191;SDS011;5652;48.406;10.820;2023-07-31T07:43:21;3.97;;;2.08;;
11191;SDS011;5652;48.406;10.820;2023-07-31T07:45:49;3.20;;;1.85;;
11191;SDS011;5652;48.406;10.820;2023-07-31T07:48:17;2.90;;;1.85;;
11191;SDS011;5652;48.406;10.820;2023-07-31T07:50:44;4.47;;;2.17;;
11191;SDS011;5652;48.406;10.820;2023-07-31T07:53:11;4.38;;;1.95;;
11191;SDS011;5652;48.406;10.820;2023-07-31T07:55:38;3.45;;;1.90;;
11191;SDS011;5652;48.406;10.820;2023-07-31T07:58:05;4.15;;;1.95;;
11191;SDS011;5652;48.406;10.820;2023-07-31T08:00:33;4.65;;;1.90;;
11191;SDS011;5652;48.406;10.820;2023-07-31T08:03:01;3.70;;;2.00;;
11191;SDS011;5652;48.406;10.820;2023-07-31T08:05:28;3.50;;;2.00;;
11191;SDS011;5652;48.406;10.820;2023-07-31T08:07:59;3.88;;;2.20;;
11191;SDS011;5652;48.406;10.820;2023-07-31T08:10:26;3.03;;;2.00;;
11191;SDS011;5652;48.406;10.820;2023-07-31T08:12:53;3.70;;;2.20;;
11191;SDS011;5652;48.406;10.820;2023-07-31T08:15:20;6.25;;;2.35;;
11191;SDS011;5652;48.406;10.820;2023-07-31T08:17:47;4.70;;;2.08;;
11191;SDS011;5652;48.406;10.820;2023-07-31T08:20:16;3.53;;;1.88;;
11191;SDS011;5652;48.406;10.820;2023-07-31T08:22:43;4.43;;;2.10;;
11191;SDS011;5652;48.406;10.820;2023-07-31T08:25:10;3.65;;;2.00;;
11191;SDS011;5652;48.406;10.820;2023-07-31T08:27:37;3.20;;;2.00;;
11191;SDS011;5652;48.406;10.820;2023-07-31T08:30:05;4.18;;;2.15;;
11191;SDS011;5652;48.406;10.820;2023-07-31T08:32:32;4.63;;;1.98;;
11191;SDS011;5652;48.406;10.820;2023-07-31T08:34:59;5.00;;;2.10;;
11191;SDS011;5652;48.406;10.820;2023-07-31T08:37:28;6.60;;;1.97;;
11191;SDS011;5652;48.406;10.820;2023-07-31T08:39:56;3.65;;;1.70;;
11191;SDS011;5652;48.406;10.820;2023-07-31T08:42:23;4.05;;;2.03;;
11191;SDS011;5652;48.406;10.820;2023-07-31T08:44:51;4.95;;;2.00;;
11191;SDS011;5652;48.406;10.820;2023-07-31T08:47:19;3.88;;;2.00;;
11191;SDS011;5652;48.406;10.820;2023-07-31T08:49:46;4.13;;;1.80;;
11191;SDS011;5652;48.406;10.820;2023-07-31T08:52:14;4.40;;;1.80;;
11191;SDS011;5652;48.406;10.820;2023-07-31T08:54:42;3.78;;;1.98;;
11191;SDS011;5652;48.406;10.820;2023-07-31T08:57:09;5.00;;;1.98;;
11191;SDS011;5652;48.406;10.820;2023-07-31T08:59:38;4.50;;;2.13;;
11191;SDS011;5652;48.406;10.820;2023-07-31T09:02:06;4.70;;;2.17;;
11191;SDS011;5652;48.406;10.820;2023-07-31T09:04:34;3.13;;;1.80;;
11191;SDS011;5652;48.406;10.820;2023-07-31T09:07:02;3.37;;;1.70;;
11191;SDS011;5652;48.406;10.820;2023-07-31T09:09:29;3.80;;;2.13;;
11191;SDS011;5652;48.406;10.820;2023-07-31T09:11:58;4.10;;;1.90;;
11191;SDS011;5652;48.406;10.820;2023-07-31T09:14:25;4.07;;;2.10;;
11191;SDS011;5652;48.406;10.820;2023-07-31T09:16:53;3.92;;;2.10;;
11191;SDS011;5652;48.406;10.820;2023-07-31T09:19:28;3.92;;;2.00;;
11191;SDS011;5652;48.406;10.820;2023-07-31T09:21:56;3.20;;;1.80;;
11191;SDS011;5652;48.406;10.820;2023-07-31T09:24:26;4.88;;;2.00;;
11191;SDS011;5652;48.406;10.820;2023-07-31T09:26:54;4.25;;;1.92;;
11191;SDS011;5652;48.406;10.820;2023-07-31T09:29:23;4.07;;;2.10;;
11191;SDS011;5652;48.406;10.820;2023-07-31T09:31:51;3.50;;;1.88;;
11191;SDS011;5652;48.406;10.820;2023-07-31T09:34:19;4.68;;;1.80;;
11191;SDS011;5652;48.406;10.820;2023-07-31T09:36:46;3.78;;;1.83;;
11191;SDS011;5652;48.406;10.820;2023-07-31T09:39:14;3.72;;;1.67;;
11191;SDS011;5652;48.406;10.820;2023-07-31T09:41:42;3.65;;;1.52;;
11191;SDS011;5652;48.406;10.820;2023-07-31T09:44:10;4.57;;;1.80;;
11191;SDS011;5652;48.406;10.820;2023-07-31T09:46:38;2.97;;;1.70;;
11191;SDS011;5652;48.406;10.820;2023-07-31T09:49:06;3.53;;;1.50;;
11191;SDS011;5652;48.406;10.820;2023-07-31T09:51:34;2.70;;;1.77;;
11191;SDS011;5652;48.406;10.820;2023-07-31T09:54:03;4.35;;;1.60;;
11191;SDS011;5652;48.406;10.820;2023-07-31T09:56:31;3.70;;;1.80;;
11191;SDS011;5652;48.406;10.820;2023-07-31T09:58:59;4.35;;;1.88;;
11191;SDS011;5652;48.406;10.820;2023-07-31T10:01:26;3.67;;;1.70;;
11191;SDS011;5652;48.406;10.820;2023-07-31T10:03:54;4.20;;;1.67;;
11191;SDS011;5652;48.406;10.820;2023-07-31T10:06:22;3.35;;;1.80;;
11191;SDS011;5652;48.406;10.820;2023-07-31T10:08:50;3.13;;;1.77;;
11191;SDS011;5652;48.406;10.820;2023-07-31T10:11:27;3.33;;;1.60;;
11191;SDS011;5652;48.406;10.820;2023-07-31T10:13:54;4.40;;;2.05;;
11191;SDS011;5652;48.406;10.820;2023-07-31T10:16:21;3.50;;;2.00;;
11191;SDS011;5652;48.406;10.820;2023-07-31T10:18:49;3.90;;;1.90;;
11191;SDS011;5652;48.406;10.820;2023-07-31T10:21:18;4.65;;;1.98;;
11191;SDS011;5652;48.406;10.820;2023-07-31T10:23:45;4.72;;;1.70;;
11191;SDS011;5652;48.406;10.820;2023-07-31T10:26:14;4.07;;;1.70;;
11191;SDS011;5652;48.406;10.820;2023-07-31T10:28:41;2.60;;;1.60;;
11191;SDS011;5652;48.406;10.820;2023-07-31T10:31:08;3.95;;;1.80;;
11191;SDS011;5652;48.406;10.820;2023-07-31T10:33:35;3.00;;;1.80;;
11191;SDS011;5652;48.406;10.820;2023-07-31T10:36:12;3.35;;;1.77;;
11191;SDS011;5652;48.406;10.820;2023-07-31T10:38:41;3.40;;;1.88;;
11191;SDS011;5652;48.406;10.820;2023-07-31T10:41:08;3.58;;;1.60;;
11191;SDS011;5652;48.406;10.820;2023-07-31T10:43:36;3.80;;;1.73;;
11191;SDS011;5652;48.406;10.820;2023-07-31T10:46:06;2.13;;;1.52;;
11191;SDS011;5652;48.406;10.820;2023-07-31T10:48:34;2.67;;;1.80;;
11191;SDS011;5652;48.406;10.820;2023-07-31T10:51:06;5.45;;;1.73;;
11191;SDS011;5652;48.406;10.820;2023-07-31T10:53:33;3.85;;;1.65;;
11191;SDS011;5652;48.406;10.820;2023-07-31T10:56:02;2.80;;;1.60;;
11191;SDS011;5652;48.406;10.820;2023-07-31T10:58:30;4.60;;;1.63;;
11191;SDS011;5652;48.406;10.820;2023-07-31T11:00:58;2.10;;;1.50;;
11191;SDS011;5652;48.406;10.820;2023-07-31T11:03:25;2.97;;;1.60;;
11191;SDS011;5652;48.406;10.820;2023-07-31T11:05:53;3.38;;;1.75;;
11191;SDS011;5652;48.406;10.820;2023-07-31T11:08:21;5.15;;;1.80;;
11191;SDS011;5652;48.406;10.820;2023-07-31T11:10:49;2.47;;;1.50;;
11191;SDS011;5652;48.406;10.820;2023-07-31T11:13:17;3.85;;;1.67;;
11191;SDS011;5652;48.406;10.820;2023-07-31T11:15:44;4.53;;;1.90;;
11191;SDS011;5652;48.406;10.820;2023-07-31T11:18:12;3.80;;;1.70;;
11191;SDS011;5652;48.406;10.820;2023-07-31T11:20:39;2.60;;;1.60;;
11191;SDS011;5652;48.406;10.820;2023-07-31T11:23:07;2.30;;;1.40;;
11191;SDS011;5652;48.406;10.820;2023-07-31T11:25:34;3.67;;;1.55;;
11191;SDS011;5652;48.406;10.820;2023-07-31T11:28:02;2.50;;;1.58;;
11191;SDS011;5652;48.406;10.820;2023-07-31T11:30:31;2.58;;;1.70;;
11191;SDS011;5652;48.406;10.820;2023-07-31T11:32:59;2.55;;;1.60;;
11191;SDS011;5652;48.406;10.820;2023-07-31T11:35:26;4.35;;;1.70;;
11191;SDS011;5652;48.406;10.820;2023-07-31T11:37:53;2.92;;;1.52;;
11191;SDS011;5652;48.406;10.820;2023-07-31T11:40:20;5.35;;;1.80;;
11191;SDS011;5652;48.406;10.820;2023-07-31T11:42:48;3.47;;;1.83;;
11191;SDS011;5652;48.406;10.820;2023-07-31T11:45:18;3.25;;;1.98;;
11191;SDS011;5652;48.406;10.820;2023-07-31T11:47:46;3.00;;;1.67;;
11191;SDS011;5652;48.406;10.820;2023-07-31T11:50:13;2.80;;;1.65;;
11191;SDS011;5652;48.406;10.820;2023-07-31T11:52:41;2.00;;;1.50;;
11191;SDS011;5652;48.406;10.820;2023-07-31T11:55:09;2.08;;;1.50;;
11191;SDS011;5652;48.406;10.820;2023-07-31T11:57:37;4.25;;;1.40;;
11191;SDS011;5652;48.406;10.820;2023-07-31T12:00:05;2.55;;;1.50;;
11191;SDS011;5652;48.406;10.820;2023-07-31T12:02:34;4.10;;;1.70;;
11191;SDS011;5652;48.406;10.820;2023-07-31T12:05:03;2.58;;;1.70;;
11191;SDS011;5652;48.406;10.820;2023-07-31T12:07:42;4.45;;;1.63;;
11191;SDS011;5652;48.406;10.820;2023-07-31T12:10:09;3.70;;;1.80;;
11191;SDS011;5652;48.406;10.820;2023-07-31T12:12:36;2.67;;;1.53;;
11191;SDS011;5652;48.406;10.820;2023-07-31T12:15:12;3.40;;;1.60;;
11191;SDS011;5652;48.406;10.820;2023-07-31T12:17:39;2.13;;;1.50;;
11191;SDS011;5652;48.406;10.820;2023-07-31T12:20:09;3.75;;;1.75;;
11191;SDS011;5652;48.406;10.820;2023-07-31T12:22:36;3.22;;;1.52;;
11191;SDS011;5652;48.406;10.820;2023-07-31T12:25:03;2.95;;;1.83;;
11191;SDS011;5652;48.406;10.820;2023-07-31T12:27:32;2.80;;;1.60;;
11191;SDS011;5652;48.406;10.820;2023-07-31T12:30:00;3.30;;;1.60;;
11191;SDS011;5652;48.406;10.820;2023-07-31T12:32:29;1.70;;;1.20;;
11191;SDS011;5652;48.406;10.820;2023-07-31T12:34:59;2.75;;;1.60;;
11191;SDS011;5652;48.406;10.820;2023-07-31T12:37:29;3.97;;;1.63;;
11191;SDS011;5652;48.406;10.820;2023-07-31T12:39:57;2.88;;;1.42;;
11191;SDS011;5652;48.406;10.820;2023-07-31T12:42:30;7.38;;;1.70;;
11191;SDS011;5652;48.406;10.820;2023-07-31T12:44:57;3.40;;;1.70;;
11191;SDS011;5652;48.406;10.820;2023-07-31T12:47:24;2.42;;;1.55;;
11191;SDS011;5652;48.406;10.820;2023-07-31T12:49:51;3.57;;;1.67;;
11191;SDS011;5652;48.406;10.820;2023-07-31T12:52:18;4.60;;;1.60;;
11191;SDS011;5652;48.406;10.820;2023-07-31T12:54:47;2.22;;;1.50;;
11191;SDS011;5652;48.406;10.820;2023-07-31T12:57:14;3.70;;;1.80;;
11191;SDS011;5652;48.406;10.820;2023-07-31T12:59:41;3.08;;;1.50;;
11191;SDS011;5652;48.406;10.820;2023-07-31T13:02:08;3.88;;;1.80;;
11191;SDS011;5652;48.406;10.820;2023-07-31T13:04:35;3.38;;;1.90;;
11191;SDS011;5652;48.406;10.820;2023-07-31T13:07:02;3.10;;;1.70;;
11191;SDS011;5652;48.406;10.820;2023-07-31T13:09:30;4.13;;;1.95;;
11191;SDS011;5652;48.406;10.820;2023-07-31T13:11:58;2.72;;;1.63;;
11191;SDS011;5652;48.406;10.820;2023-07-31T13:14:25;2.53;;;1.60;;
11191;SDS011;5652;48.406;10.820;2023-07-31T13:16:53;4.65;;;1.98;;
11191;SDS011;5652;48.406;10.820;2023-07-31T13:19:20;3.03;;;1.80;;
11191;SDS011;5652;48.406;10.820;2023-07-31T13:21:47;4.47;;;1.75;;
11191;SDS011;5652;48.406;10.820;2023-07-31T13:24:14;3.53;;;1.90;;
11191;SDS011;5652;48.406;10.820;2023-07-31T13:26:41;2.90;;;1.77;;
11191;SDS011;5652;48.406;10.820;2023-07-31T13:29:10;4.68;;;1.80;;
11191;SDS011;5652;48.406;10.820;2023-07-31T13:31:37;3.13;;;1.90;;
11191;SDS011;5652;48.406;10.820;2023-07-31T13:34:04;3.45;;;1.98;;
11191;SDS011;5652;48.406;10.820;2023-07-31T13:36:31;4.63;;;2.10;;
11191;SDS011;5652;48.406;10.820;2023-07-31T13:38:59;5.20;;;2.00;;
11191;SDS011;5652;48.406;10.820;2023-07-31T13:41:26;3.50;;;1.60;;
11191;SDS011;5652;48.406;10.820;2023-07-31T13:43:53;5.20;;;1.52;;
11191;SDS011;5652;48.406;10.820;2023-07-31T13:46:21;2.83;;;1.88;;
11191;SDS011;5652;48.406;10.820;2023-07-31T13:48:48;3.38;;;1.88;;
11191;SDS011;5652;48.406;10.820;2023-07-31T13:51:15;3.13;;;1.88;;
11191;SDS011;5652;48.406;10.820;2023-07-31T13:53:43;2.42;;;1.70;;
11191;SDS011;5652;48.406;10.820;2023-07-31T13:56:10;3.45;;;1.90;;
11191;SDS011;5652;48.406;10.820;2023-07-31T13:58:37;2.50;;;1.77;;
11191;SDS011;5652;48.406;10.820;2023-07-31T14:01:04;3.63;;;2.13;;
11191;SDS011;5652;48.406;10.820;2023-07-31T14:03:33;4.03;;;2.03;;
11191;SDS011;5652;48.406;10.820;2023-07-31T14:06:00;4.60;;;2.10;;
11191;SDS011;5652;48.406;10.820;2023-07-31T14:08:27;4.88;;;2.22;;
11191;SDS011;5652;48.406;10.820;2023-07-31T14:10:55;4.38;;;1.92;;
11191;SDS011;5652;48.406;10.820;2023-07-31T14:13:22;4.03;;;1.90;;
11191;SDS011;5652;48.406;10.820;2023-07-31T14:15:49;4.07;;;1.80;;
11191;SDS011;5652;48.406;10.820;2023-07-31T14:18:16;3.43;;;2.00;;
11191;SDS011;5652;48.406;10.820;2023-07-31T14:20:44;4.13;;;1.70;;
11191;SDS011;5652;48.406;10.820;2023-07-31T14:23:12;5.00;;;2.00;;
11191;SDS011;5652;48.406;10.820;2023-07-31T14:25:40;4.18;;;1.92;;
11191;SDS011;5652;48.406;10.820;2023-07-31T14:28:07;3.10;;;1.90;;
11191;SDS011;5652;48.406;10.820;2023-07-31T14:30:34;3.95;;;1.95;;
11191;SDS011;5652;48.406;10.820;2023-07-31T14:33:01;3.15;;;1.88;;
11191;SDS011;5652;48.406;10.820;2023-07-31T14:35:28;5.38;;;2.40;;
11191;SDS011;5652;48.406;10.820;2023-07-31T14:37:57;4.28;;;2.15;;
11191;SDS011;5652;48.406;10.820;2023-07-31T14:40:24;4.78;;;2.20;;
11191;SDS011;5652;48.406;10.820;2023-07-31T14:42:51;4.15;;;1.80;;
11191;SDS011;5652;48.406;10.820;2023-07-31T14:45:18;4.30;;;1.98;;
11191;SDS011;5652;48.406;10.820;2023-07-31T14:47:45;4.57;;;2.10;;
11191;SDS011;5652;48.406;10.820;2023-07-31T14:50:12;3.40;;;1.85;;